Aviation Digital Data Service (ADDS)

Output produced by METARs form (2016 UTC 23 January 2019)
found at http://www.aviationweather.gov/metar/data/
 
METAR text: ROAH 232000Z 35009KT 9999 FEW040 15/04 Q1020 RMK 1SC040 A3013
Conditions at: ROAH (NAHA (CIV/JASDF), JP) observed 2000 UTC 23 January 2019
Temperature: 15.0°C (59°F)
Dewpoint: 4.0°C (39°F) [RH = 48%]
Pressure (altimeter): 30.12 inches Hg (1020.0 mb)
Winds: from the N (350 degrees) at 10 MPH (9 knots; 4.6 m/s)
Visibility: 6 or more miles (10+ km)
Ceiling: at least 12,000 feet AGL
Clouds: few clouds at 4000 feet AGL
Weather: no significant weather observed at this time

METAR text: ROAH 231930Z 34009KT 9999 FEW040 SCT050 16/05 Q1020 RMK 1SC040 3SC050 A3013
Conditions at: ROAH (NAHA (CIV/JASDF), JP) observed 1930 UTC 23 January 2019
Temperature: 16.0°C (61°F)
Dewpoint: 5.0°C (41°F) [RH = 48%]
Pressure (altimeter): 30.12 inches Hg (1020.0 mb)
Winds: from the NNW (340 degrees) at 10 MPH (9 knots; 4.6 m/s)
Visibility: 6 or more miles (10+ km)
Ceiling: at least 12,000 feet AGL
Clouds: few clouds at 4000 feet AGL
scattered clouds at 5000 feet AGL
Weather: no significant weather observed at this time

METAR text: ROAH 231900Z 36010KT 9999 FEW040 SCT050 16/05 Q1020 RMK 1SC040 4SC050 A3013
Conditions at: ROAH (NAHA (CIV/JASDF), JP) observed 1900 UTC 23 January 2019
Temperature: 16.0°C (61°F)
Dewpoint: 5.0°C (41°F) [RH = 48%]
Pressure (altimeter): 30.12 inches Hg (1020.0 mb)
Winds: from the N (360 degrees) at 12 MPH (10 knots; 5.1 m/s)
Visibility: 6 or more miles (10+ km)
Ceiling: at least 12,000 feet AGL
Clouds: few clouds at 4000 feet AGL
scattered clouds at 5000 feet AGL
Weather: no significant weather observed at this time

METAR text: ROAH 231830Z 34008KT 9999 FEW040 SCT050 16/05 Q1020 RMK 1SC040 3SC050 A3013
Conditions at: ROAH (NAHA (CIV/JASDF), JP) observed 1830 UTC 23 January 2019
Temperature: 16.0°C (61°F)
Dewpoint: 5.0°C (41°F) [RH = 48%]
Pressure (altimeter): 30.12 inches Hg (1020.0 mb)
Winds: from the NNW (340 degrees) at 9 MPH (8 knots; 4.1 m/s)
Visibility: 6 or more miles (10+ km)
Ceiling: at least 12,000 feet AGL
Clouds: few clouds at 4000 feet AGL
scattered clouds at 5000 feet AGL
Weather: no significant weather observed at this time

METAR text: ROAH 231800Z 34010KT 9999 FEW040 16/05 Q1020 RMK 1SC040 A3014
Conditions at: ROAH (NAHA (CIV/JASDF), JP) observed 1800 UTC 23 January 2019
Temperature: 16.0°C (61°F)
Dewpoint: 5.0°C (41°F) [RH = 48%]
Pressure (altimeter): 30.12 inches Hg (1020.0 mb)
Winds: from the NNW (340 degrees) at 12 MPH (10 knots; 5.1 m/s)
Visibility: 6 or more miles (10+ km)
Ceiling: at least 12,000 feet AGL
Clouds: few clouds at 4000 feet AGL
Weather: no significant weather observed at this time

METAR text: ROAH 231730Z 36012KT 9999 FEW040 SCT050 16/06 Q1020 RMK 1SC040 3SC050 A3014
Conditions at: ROAH (NAHA (CIV/JASDF), JP) observed 1730 UTC 23 January 2019
Temperature: 16.0°C (61°F)
Dewpoint: 6.0°C (43°F) [RH = 51%]
Pressure (altimeter): 30.12 inches Hg (1020.0 mb)
Winds: from the N (360 degrees) at 14 MPH (12 knots; 6.2 m/s)
Visibility: 6 or more miles (10+ km)
Ceiling: at least 12,000 feet AGL
Clouds: few clouds at 4000 feet AGL
scattered clouds at 5000 feet AGL
Weather: no significant weather observed at this time

METAR text: ROAH 231700Z 35012KT 9999 FEW040 SCT050 16/07 Q1020 RMK 1SC040 3SC050 A3014
Conditions at: ROAH (NAHA (CIV/JASDF), JP) observed 1700 UTC 23 January 2019
Temperature: 16.0°C (61°F)
Dewpoint: 7.0°C (45°F) [RH = 55%]
Pressure (altimeter): 30.12 inches Hg (1020.0 mb)
Winds: from the N (350 degrees) at 14 MPH (12 knots; 6.2 m/s)
Visibility: 6 or more miles (10+ km)
Ceiling: at least 12,000 feet AGL
Clouds: few clouds at 4000 feet AGL
scattered clouds at 5000 feet AGL
Weather: no significant weather observed at this time

METAR text: ROAH 231630Z 02007KT 9999 FEW040 SCT050 17/05 Q1020 RMK 1SC040 4SC050 A3014
Conditions at: ROAH (NAHA (CIV/JASDF), JP) observed 1630 UTC 23 January 2019
Temperature: 17.0°C (63°F)
Dewpoint: 5.0°C (41°F) [RH = 45%]
Pressure (altimeter): 30.12 inches Hg (1020.0 mb)
Winds: from the NNE (20 degrees) at 8 MPH (7 knots; 3.6 m/s)
Visibility: 6 or more miles (10+ km)
Ceiling: at least 12,000 feet AGL
Clouds: few clouds at 4000 feet AGL
scattered clouds at 5000 feet AGL
Weather: no significant weather observed at this time

METAR text: ROAH 231600Z 36010KT 9999 FEW040 16/04 Q1020 RMK 1SC040 A3014
Conditions at: ROAH (NAHA (CIV/JASDF), JP) observed 1600 UTC 23 January 2019
Temperature: 16.0°C (61°F)
Dewpoint: 4.0°C (39°F) [RH = 45%]
Pressure (altimeter): 30.12 inches Hg (1020.0 mb)
Winds: from the N (360 degrees) at 12 MPH (10 knots; 5.1 m/s)
Visibility: 6 or more miles (10+ km)
Ceiling: at least 12,000 feet AGL
Clouds: few clouds at 4000 feet AGL
Weather: no significant weather observed at this time

METAR text: ROAH 231530Z 03007KT 350V060 9999 FEW040 SCT050 17/06 Q1020 RMK 1SC040 3SC050 A3015
Conditions at: ROAH (NAHA (CIV/JASDF), JP) observed 1530 UTC 23 January 2019
Temperature: 17.0°C (63°F)
Dewpoint: 6.0°C (43°F) [RH = 48%]
Pressure (altimeter): 30.12 inches Hg (1020.0 mb)
Winds: from the NNE (30 degrees) at 8 MPH (7 knots; 3.6 m/s)
Visibility: 6 or more miles (10+ km)
Ceiling: at least 12,000 feet AGL
Clouds: few clouds at 4000 feet AGL
scattered clouds at 5000 feet AGL
Weather: no significant weather observed at this time

METAR text: ROAH 231500Z 36008KT 9999 FEW040 SCT050 17/05 Q1020 RMK 1SC040 3SC050 A3015
Conditions at: ROAH (NAHA (CIV/JASDF), JP) observed 1500 UTC 23 January 2019
Temperature: 17.0°C (63°F)
Dewpoint: 5.0°C (41°F) [RH = 45%]
Pressure (altimeter): 30.12 inches Hg (1020.0 mb)
Winds: from the N (360 degrees) at 9 MPH (8 knots; 4.1 m/s)
Visibility: 6 or more miles (10+ km)
Ceiling: at least 12,000 feet AGL
Clouds: few clouds at 4000 feet AGL
scattered clouds at 5000 feet AGL
Weather: no significant weather observed at this time

METAR text: ROAH 231430Z 02008KT 9999 FEW040 SCT050 17/05 Q1020 RMK 1SC040 3SC050 A3015
Conditions at: ROAH (NAHA (CIV/JASDF), JP) observed 1430 UTC 23 January 2019
Temperature: 17.0°C (63°F)
Dewpoint: 5.0°C (41°F) [RH = 45%]
Pressure (altimeter): 30.12 inches Hg (1020.0 mb)
Winds: from the NNE (20 degrees) at 9 MPH (8 knots; 4.1 m/s)
Visibility: 6 or more miles (10+ km)
Ceiling: at least 12,000 feet AGL
Clouds: few clouds at 4000 feet AGL
scattered clouds at 5000 feet AGL
Weather: no significant weather observed at this time

METAR text: ROAH 231400Z 36009KT 9999 FEW040 SCT050 16/05 Q1020 RMK 1SC040 3SC050 A3015
Conditions at: ROAH (NAHA (CIV/JASDF), JP) observed 1400 UTC 23 January 2019
Temperature: 16.0°C (61°F)
Dewpoint: 5.0°C (41°F) [RH = 48%]
Pressure (altimeter): 30.12 inches Hg (1020.0 mb)
Winds: from the N (360 degrees) at 10 MPH (9 knots; 4.6 m/s)
Visibility: 6 or more miles (10+ km)
Ceiling: at least 12,000 feet AGL
Clouds: few clouds at 4000 feet AGL
scattered clouds at 5000 feet AGL
Weather: no significant weather observed at this time

METAR text: ROAH 231330Z 02007KT 9999 FEW040 SCT050 16/05 Q1020 RMK 1SC040 3SC050 A3015
Conditions at: ROAH (NAHA (CIV/JASDF), JP) observed 1330 UTC 23 January 2019
Temperature: 16.0°C (61°F)
Dewpoint: 5.0°C (41°F) [RH = 48%]
Pressure (altimeter): 30.12 inches Hg (1020.0 mb)
Winds: from the NNE (20 degrees) at 8 MPH (7 knots; 3.6 m/s)
Visibility: 6 or more miles (10+ km)
Ceiling: at least 12,000 feet AGL
Clouds: few clouds at 4000 feet AGL
scattered clouds at 5000 feet AGL
Weather: no significant weather observed at this time

METAR text: ROAH 231300Z 01010KT 9999 FEW040 SCT050 17/07 Q1021 RMK 1SC040 3SC050 A3015
Conditions at: ROAH (NAHA (CIV/JASDF), JP) observed 1300 UTC 23 January 2019
Temperature: 17.0°C (63°F)
Dewpoint: 7.0°C (45°F) [RH = 52%]
Pressure (altimeter): 30.15 inches Hg (1021.0 mb)
Winds: from the N (10 degrees) at 12 MPH (10 knots; 5.1 m/s)
Visibility: 6 or more miles (10+ km)
Ceiling: at least 12,000 feet AGL
Clouds: few clouds at 4000 feet AGL
scattered clouds at 5000 feet AGL
Weather: no significant weather observed at this time

METAR text: ROAH 231230Z 35010KT 9999 FEW040 SCT050 17/07 Q1021 RMK 1SC040 3SC050 A3015
Conditions at: ROAH (NAHA (CIV/JASDF), JP) observed 1230 UTC 23 January 2019
Temperature: 17.0°C (63°F)
Dewpoint: 7.0°C (45°F) [RH = 52%]
Pressure (altimeter): 30.15 inches Hg (1021.0 mb)
Winds: from the N (350 degrees) at 12 MPH (10 knots; 5.1 m/s)
Visibility: 6 or more miles (10+ km)
Ceiling: at least 12,000 feet AGL
Clouds: few clouds at 4000 feet AGL
scattered clouds at 5000 feet AGL
Weather: no significant weather observed at this time

METAR text: ROAH 231200Z 35009KT 9999 FEW040 SCT050 17/07 Q1021 RMK 1SC040 3SC050 A3016
Conditions at: ROAH (NAHA (CIV/JASDF), JP) observed 1200 UTC 23 January 2019
Temperature: 17.0°C (63°F)
Dewpoint: 7.0°C (45°F) [RH = 52%]
Pressure (altimeter): 30.15 inches Hg (1021.0 mb)
Winds: from the N (350 degrees) at 10 MPH (9 knots; 4.6 m/s)
Visibility: 6 or more miles (10+ km)
Ceiling: at least 12,000 feet AGL
Clouds: few clouds at 4000 feet AGL
scattered clouds at 5000 feet AGL
Weather: no significant weather observed at this time

METAR text: ROAH 231130Z 35010KT 9999 FEW040 SCT050 17/07 Q1021 RMK 1SC040 3SC050 A3015
Conditions at: ROAH (NAHA (CIV/JASDF), JP) observed 1130 UTC 23 January 2019
Temperature: 17.0°C (63°F)
Dewpoint: 7.0°C (45°F) [RH = 52%]
Pressure (altimeter): 30.15 inches Hg (1021.0 mb)
Winds: from the N (350 degrees) at 12 MPH (10 knots; 5.1 m/s)
Visibility: 6 or more miles (10+ km)
Ceiling: at least 12,000 feet AGL
Clouds: few clouds at 4000 feet AGL
scattered clouds at 5000 feet AGL
Weather: no significant weather observed at this time

METAR text: ROAH 231100Z 35009KT 9999 FEW040 SCT050 17/08 Q1020 RMK 1SC040 3SC050 A3015
Conditions at: ROAH (NAHA (CIV/JASDF), JP) observed 1100 UTC 23 January 2019
Temperature: 17.0°C (63°F)
Dewpoint: 8.0°C (46°F) [RH = 55%]
Pressure (altimeter): 30.12 inches Hg (1020.0 mb)
Winds: from the N (350 degrees) at 10 MPH (9 knots; 4.6 m/s)
Visibility: 6 or more miles (10+ km)
Ceiling: at least 12,000 feet AGL
Clouds: few clouds at 4000 feet AGL
scattered clouds at 5000 feet AGL
Weather: no significant weather observed at this time

METAR text: ROAH 231030Z 35011KT 9999 FEW040 SCT050 17/07 Q1020 RMK 1SC040 3SC050 A3014
Conditions at: ROAH (NAHA (CIV/JASDF), JP) observed 1030 UTC 23 January 2019
Temperature: 17.0°C (63°F)
Dewpoint: 7.0°C (45°F) [RH = 52%]
Pressure (altimeter): 30.12 inches Hg (1020.0 mb)
Winds: from the N (350 degrees) at 13 MPH (11 knots; 5.7 m/s)
Visibility: 6 or more miles (10+ km)
Ceiling: at least 12,000 feet AGL
Clouds: few clouds at 4000 feet AGL
scattered clouds at 5000 feet AGL
Weather: no significant weather observed at this time

METAR text: ROAH 231000Z 35011KT 9999 FEW040 SCT050 17/08 Q1020 RMK 1SC040 3SC050 A3013
Conditions at: ROAH (NAHA (CIV/JASDF), JP) observed 1000 UTC 23 January 2019
Temperature: 17.0°C (63°F)
Dewpoint: 8.0°C (46°F) [RH = 55%]
Pressure (altimeter): 30.12 inches Hg (1020.0 mb)
Winds: from the N (350 degrees) at 13 MPH (11 knots; 5.7 m/s)
Visibility: 6 or more miles (10+ km)
Ceiling: at least 12,000 feet AGL
Clouds: few clouds at 4000 feet AGL
scattered clouds at 5000 feet AGL
Weather: no significant weather observed at this time

METAR text: ROAH 230930Z 36010KT 9999 FEW040 17/08 Q1019 RMK 1SC040 A3012
Conditions at: ROAH (NAHA (CIV/JASDF), JP) observed 0930 UTC 23 January 2019
Temperature: 17.0°C (63°F)
Dewpoint: 8.0°C (46°F) [RH = 55%]
Pressure (altimeter): 30.09 inches Hg (1019.0 mb)
Winds: from the N (360 degrees) at 12 MPH (10 knots; 5.1 m/s)
Visibility: 6 or more miles (10+ km)
Ceiling: at least 12,000 feet AGL
Clouds: few clouds at 4000 feet AGL
Weather: no significant weather observed at this time

METAR text: ROAH 230900Z 35012KT 9999 FEW040 SCT050 18/07 Q1019 RMK 1SC040 3SC050 A3011
Conditions at: ROAH (NAHA (CIV/JASDF), JP) observed 0900 UTC 23 January 2019
Temperature: 18.0°C (64°F)
Dewpoint: 7.0°C (45°F) [RH = 49%]
Pressure (altimeter): 30.09 inches Hg (1019.0 mb)
Winds: from the N (350 degrees) at 14 MPH (12 knots; 6.2 m/s)
Visibility: 6 or more miles (10+ km)
Ceiling: at least 12,000 feet AGL
Clouds: few clouds at 4000 feet AGL
scattered clouds at 5000 feet AGL
Weather: no significant weather observed at this time

METAR text: ROAH 230830Z 36013KT 9999 FEW040 18/07 Q1019 RMK 1SC040 A3011
Conditions at: ROAH (NAHA (CIV/JASDF), JP) observed 0830 UTC 23 January 2019
Temperature: 18.0°C (64°F)
Dewpoint: 7.0°C (45°F) [RH = 49%]
Pressure (altimeter): 30.09 inches Hg (1019.0 mb)
Winds: from the N (360 degrees) at 15 MPH (13 knots; 6.7 m/s)
Visibility: 6 or more miles (10+ km)
Ceiling: at least 12,000 feet AGL
Clouds: few clouds at 4000 feet AGL
Weather: no significant weather observed at this time

METAR text: ROAH 230800Z 35013KT 9999 FEW045 SCT050 18/07 Q1019 RMK 1SC045 3SC050 A3010
Conditions at: ROAH (NAHA (CIV/JASDF), JP) observed 0800 UTC 23 January 2019
Temperature: 18.0°C (64°F)
Dewpoint: 7.0°C (45°F) [RH = 49%]
Pressure (altimeter): 30.09 inches Hg (1019.0 mb)
Winds: from the N (350 degrees) at 15 MPH (13 knots; 6.7 m/s)
Visibility: 6 or more miles (10+ km)
Ceiling: at least 12,000 feet AGL
Clouds: few clouds at 4500 feet AGL
scattered clouds at 5000 feet AGL
Weather: no significant weather observed at this time

METAR text: ROAH 230730Z 36011KT 9999 FEW045 19/07 Q1019 RMK 1SC045 A3010
Conditions at: ROAH (NAHA (CIV/JASDF), JP) observed 0730 UTC 23 January 2019
Temperature: 19.0°C (66°F)
Dewpoint: 7.0°C (45°F) [RH = 46%]
Pressure (altimeter): 30.09 inches Hg (1019.0 mb)
Winds: from the N (360 degrees) at 13 MPH (11 knots; 5.7 m/s)
Visibility: 6 or more miles (10+ km)
Ceiling: at least 12,000 feet AGL
Clouds: few clouds at 4500 feet AGL
Weather: no significant weather observed at this time

METAR text: ROAH 230700Z 35012KT 9999 FEW045 19/07 Q1019 RMK 1SC045 A3010
Conditions at: ROAH (NAHA (CIV/JASDF), JP) observed 0700 UTC 23 January 2019
Temperature: 19.0°C (66°F)
Dewpoint: 7.0°C (45°F) [RH = 46%]
Pressure (altimeter): 30.09 inches Hg (1019.0 mb)
Winds: from the N (350 degrees) at 14 MPH (12 knots; 6.2 m/s)
Visibility: 6 or more miles (10+ km)
Ceiling: at least 12,000 feet AGL
Clouds: few clouds at 4500 feet AGL
Weather: no significant weather observed at this time

METAR text: ROAH 230630Z 36012KT 9999 FEW040 19/07 Q1019 RMK 1SC040 A3009
Conditions at: ROAH (NAHA (CIV/JASDF), JP) observed 0630 UTC 23 January 2019
Temperature: 19.0°C (66°F)
Dewpoint: 7.0°C (45°F) [RH = 46%]
Pressure (altimeter): 30.09 inches Hg (1019.0 mb)
Winds: from the N (360 degrees) at 14 MPH (12 knots; 6.2 m/s)
Visibility: 6 or more miles (10+ km)
Ceiling: at least 12,000 feet AGL
Clouds: few clouds at 4000 feet AGL
Weather: no significant weather observed at this time

METAR text: ROAH 230600Z 36012KT 9999 FEW040 19/08 Q1019 RMK 1SC040 A3009
Conditions at: ROAH (NAHA (CIV/JASDF), JP) observed 0600 UTC 23 January 2019
Temperature: 19.0°C (66°F)
Dewpoint: 8.0°C (46°F) [RH = 49%]
Pressure (altimeter): 30.09 inches Hg (1019.0 mb)
Winds: from the N (360 degrees) at 14 MPH (12 knots; 6.2 m/s)
Visibility: 6 or more miles (10+ km)
Ceiling: at least 12,000 feet AGL
Clouds: few clouds at 4000 feet AGL
Weather: no significant weather observed at this time

METAR text: ROAH 230530Z 34011KT 9999 FEW040 19/07 Q1019 RMK 2SC040 A3010
Conditions at: ROAH (NAHA (CIV/JASDF), JP) observed 0530 UTC 23 January 2019
Temperature: 19.0°C (66°F)
Dewpoint: 7.0°C (45°F) [RH = 46%]
Pressure (altimeter): 30.09 inches Hg (1019.0 mb)
Winds: from the NNW (340 degrees) at 13 MPH (11 knots; 5.7 m/s)
Visibility: 6 or more miles (10+ km)
Ceiling: at least 12,000 feet AGL
Clouds: few clouds at 4000 feet AGL
Weather: no significant weather observed at this time

METAR text: ROAH 230500Z 35011KT 320V030 9999 FEW040 19/07 Q1019 RMK 2SC040 A3010
Conditions at: ROAH (NAHA (CIV/JASDF), JP) observed 0500 UTC 23 January 2019
Temperature: 19.0°C (66°F)
Dewpoint: 7.0°C (45°F) [RH = 46%]
Pressure (altimeter): 30.09 inches Hg (1019.0 mb)
Winds: from the N (350 degrees) at 13 MPH (11 knots; 5.7 m/s)
Visibility: 6 or more miles (10+ km)
Ceiling: at least 12,000 feet AGL
Clouds: few clouds at 4000 feet AGL
Weather: no significant weather observed at this time

METAR text: ROAH 230430Z 36011KT 9999 FEW040 19/07 Q1019 RMK 1SC040 A3011
Conditions at: ROAH (NAHA (CIV/JASDF), JP) observed 0430 UTC 23 January 2019
Temperature: 19.0°C (66°F)
Dewpoint: 7.0°C (45°F) [RH = 46%]
Pressure (altimeter): 30.09 inches Hg (1019.0 mb)
Winds: from the N (360 degrees) at 13 MPH (11 knots; 5.7 m/s)
Visibility: 6 or more miles (10+ km)
Ceiling: at least 12,000 feet AGL
Clouds: few clouds at 4000 feet AGL
Weather: no significant weather observed at this time

METAR text: ROAH 230400Z 01011KT 330V050 9999 FEW040 19/07 Q1020 RMK 1SC040 A3013
Conditions at: ROAH (NAHA (CIV/JASDF), JP) observed 0400 UTC 23 January 2019
Temperature: 19.0°C (66°F)
Dewpoint: 7.0°C (45°F) [RH = 46%]
Pressure (altimeter): 30.12 inches Hg (1020.0 mb)
Winds: from the N (10 degrees) at 13 MPH (11 knots; 5.7 m/s)
Visibility: 6 or more miles (10+ km)
Ceiling: at least 12,000 feet AGL
Clouds: few clouds at 4000 feet AGL
Weather: no significant weather observed at this time

METAR text: ROAH 230330Z 01009KT 310V080 9999 FEW040 19/06 Q1020 RMK 1SC040 A3013
Conditions at: ROAH (NAHA (CIV/JASDF), JP) observed 0330 UTC 23 January 2019
Temperature: 19.0°C (66°F)
Dewpoint: 6.0°C (43°F) [RH = 43%]
Pressure (altimeter): 30.12 inches Hg (1020.0 mb)
Winds: from the N (10 degrees) at 10 MPH (9 knots; 4.6 m/s)
Visibility: 6 or more miles (10+ km)
Ceiling: at least 12,000 feet AGL
Clouds: few clouds at 4000 feet AGL
Weather: no significant weather observed at this time

METAR text: ROAH 230300Z 02009KT 320V070 9999 FEW040 19/05 Q1020 RMK 1SC040 A3014
Conditions at: ROAH (NAHA (CIV/JASDF), JP) observed 0300 UTC 23 January 2019
Temperature: 19.0°C (66°F)
Dewpoint: 5.0°C (41°F) [RH = 40%]
Pressure (altimeter): 30.12 inches Hg (1020.0 mb)
Winds: from the NNE (20 degrees) at 10 MPH (9 knots; 4.6 m/s)
Visibility: 6 or more miles (10+ km)
Ceiling: at least 12,000 feet AGL
Clouds: few clouds at 4000 feet AGL
Weather: no significant weather observed at this time

METAR text: ROAH 230230Z 35012KT 310V030 9999 FEW040 19/07 Q1021 RMK 1SC040 A3015
Conditions at: ROAH (NAHA (CIV/JASDF), JP) observed 0230 UTC 23 January 2019
Temperature: 19.0°C (66°F)
Dewpoint: 7.0°C (45°F) [RH = 46%]
Pressure (altimeter): 30.15 inches Hg (1021.0 mb)
Winds: from the N (350 degrees) at 14 MPH (12 knots; 6.2 m/s)
Visibility: 6 or more miles (10+ km)
Ceiling: at least 12,000 feet AGL
Clouds: few clouds at 4000 feet AGL
Weather: no significant weather observed at this time

METAR text: ROAH 230200Z 01012KT 9999 FEW040 18/05 Q1021
Conditions at: ROAH (NAHA (CIV/JASDF), JP) observed 0200 UTC 23 January 2019
Temperature: 18.0°C (64°F)
Dewpoint: 5.0°C (41°F) [RH = 42%]
Pressure (altimeter): 30.15 inches Hg (1021.0 mb)
Winds: from the N (10 degrees) at 14 MPH (12 knots; 6.2 m/s)
Visibility: 6 or more miles (10+ km)
Ceiling: at least 12,000 feet AGL
Clouds: few clouds at 4000 feet AGL
Weather: no significant weather observed at this time

METAR text: ROAH 230130Z 01011KT 9999 FEW045 18/07 Q1021 RMK 2SC045 A3016
Conditions at: ROAH (NAHA (CIV/JASDF), JP) observed 0130 UTC 23 January 2019
Temperature: 18.0°C (64°F)
Dewpoint: 7.0°C (45°F) [RH = 49%]
Pressure (altimeter): 30.15 inches Hg (1021.0 mb)
Winds: from the N (10 degrees) at 13 MPH (11 knots; 5.7 m/s)
Visibility: 6 or more miles (10+ km)
Ceiling: at least 12,000 feet AGL
Clouds: few clouds at 4500 feet AGL
Weather: no significant weather observed at this time

METAR text: ROAH 230100Z 36012KT 9999 FEW045 17/06 Q1021 RMK 2SC045 A3016
Conditions at: ROAH (NAHA (CIV/JASDF), JP) observed 0100 UTC 23 January 2019
Temperature: 17.0°C (63°F)
Dewpoint: 6.0°C (43°F) [RH = 48%]
Pressure (altimeter): 30.15 inches Hg (1021.0 mb)
Winds: from the N (360 degrees) at 14 MPH (12 knots; 6.2 m/s)
Visibility: 6 or more miles (10+ km)
Ceiling: at least 12,000 feet AGL
Clouds: few clouds at 4500 feet AGL
Weather: no significant weather observed at this time

METAR text: ROAH 230030Z 01012KT 9999 FEW045 17/05 Q1020 RMK 2SC045 A3015
Conditions at: ROAH (NAHA (CIV/JASDF), JP) observed 0030 UTC 23 January 2019
Temperature: 17.0°C (63°F)
Dewpoint: 5.0°C (41°F) [RH = 45%]
Pressure (altimeter): 30.12 inches Hg (1020.0 mb)
Winds: from the N (10 degrees) at 14 MPH (12 knots; 6.2 m/s)
Visibility: 6 or more miles (10+ km)
Ceiling: at least 12,000 feet AGL
Clouds: few clouds at 4500 feet AGL
Weather: no significant weather observed at this time

METAR text: ROAH 230000Z 36013KT 9999 FEW040 SCT045 16/07 Q1020 RMK 1SC040 3SC045 A3014
Conditions at: ROAH (NAHA (CIV/JASDF), JP) observed 0000 UTC 23 January 2019
Temperature: 16.0°C (61°F)
Dewpoint: 7.0°C (45°F) [RH = 55%]
Pressure (altimeter): 30.12 inches Hg (1020.0 mb)
Winds: from the N (360 degrees) at 15 MPH (13 knots; 6.7 m/s)
Visibility: 6 or more miles (10+ km)
Ceiling: at least 12,000 feet AGL
Clouds: few clouds at 4000 feet AGL
scattered clouds at 4500 feet AGL
Weather: no significant weather observed at this time

METAR text: ROAH 222330Z 36013KT 9999 FEW040 SCT045 16/04 Q1020 RMK 1SC040 3SC045 A3014
Conditions at: ROAH (NAHA (CIV/JASDF), JP) observed 2330 UTC 22 January 2019
Temperature: 16.0°C (61°F)
Dewpoint: 4.0°C (39°F) [RH = 45%]
Pressure (altimeter): 30.12 inches Hg (1020.0 mb)
Winds: from the N (360 degrees) at 15 MPH (13 knots; 6.7 m/s)
Visibility: 6 or more miles (10+ km)
Ceiling: at least 12,000 feet AGL
Clouds: few clouds at 4000 feet AGL
scattered clouds at 4500 feet AGL
Weather: no significant weather observed at this time

METAR text: ROAH 222300Z 36012KT 340V060 9999 FEW040 SCT045 15/05 Q1020 RMK 1SC040 3SC045 A3013
Conditions at: ROAH (NAHA (CIV/JASDF), JP) observed 2300 UTC 22 January 2019
Temperature: 15.0°C (59°F)
Dewpoint: 5.0°C (41°F) [RH = 51%]
Pressure (altimeter): 30.12 inches Hg (1020.0 mb)
Winds: from the N (360 degrees) at 14 MPH (12 knots; 6.2 m/s)
Visibility: 6 or more miles (10+ km)
Ceiling: at least 12,000 feet AGL
Clouds: few clouds at 4000 feet AGL
scattered clouds at 4500 feet AGL
Weather: no significant weather observed at this time

METAR text: ROAH 222230Z 01013KT 9999 FEW040 SCT045 16/05 Q1020 RMK 1SC040 3SC045 A3012
Conditions at: ROAH (NAHA (CIV/JASDF), JP) observed 2230 UTC 22 January 2019
Temperature: 16.0°C (61°F)
Dewpoint: 5.0°C (41°F) [RH = 48%]
Pressure (altimeter): 30.12 inches Hg (1020.0 mb)
Winds: from the N (10 degrees) at 15 MPH (13 knots; 6.7 m/s)
Visibility: 6 or more miles (10+ km)
Ceiling: at least 12,000 feet AGL
Clouds: few clouds at 4000 feet AGL
scattered clouds at 4500 feet AGL
Weather: no significant weather observed at this time

METAR text: ROAH 222200Z 01014KT 9999 FEW040 SCT050 16/06 Q1019 RMK 1SC040 3SC050 A3011
Conditions at: ROAH (NAHA (CIV/JASDF), JP) observed 2200 UTC 22 January 2019
Temperature: 16.0°C (61°F)
Dewpoint: 6.0°C (43°F) [RH = 51%]
Pressure (altimeter): 30.09 inches Hg (1019.0 mb)
Winds: from the N (10 degrees) at 16 MPH (14 knots; 7.2 m/s)
Visibility: 6 or more miles (10+ km)
Ceiling: at least 12,000 feet AGL
Clouds: few clouds at 4000 feet AGL
scattered clouds at 5000 feet AGL
Weather: no significant weather observed at this time

METAR text: ROAH 222130Z 36015KT 9999 SCT045 15/04 Q1019 RMK 3SC045 A3010
Conditions at: ROAH (NAHA (CIV/JASDF), JP) observed 2130 UTC 22 January 2019
Temperature: 15.0°C (59°F)
Dewpoint: 4.0°C (39°F) [RH = 48%]
Pressure (altimeter): 30.09 inches Hg (1019.0 mb)
Winds: from the N (360 degrees) at 17 MPH (15 knots; 7.7 m/s)
Visibility: 6 or more miles (10+ km)
Ceiling: at least 12,000 feet AGL
Clouds: scattered clouds at 4500 feet AGL
Weather: no significant weather observed at this time

METAR text: ROAH 222100Z 35014KT 9999 FEW045 15/05 Q1019 RMK 2SC045 A3010
Conditions at: ROAH (NAHA (CIV/JASDF), JP) observed 2100 UTC 22 January 2019
Temperature: 15.0°C (59°F)
Dewpoint: 5.0°C (41°F) [RH = 51%]
Pressure (altimeter): 30.09 inches Hg (1019.0 mb)
Winds: from the N (350 degrees) at 16 MPH (14 knots; 7.2 m/s)
Visibility: 6 or more miles (10+ km)
Ceiling: at least 12,000 feet AGL
Clouds: few clouds at 4500 feet AGL
Weather: no significant weather observed at this time

METAR text: ROAH 222030Z 35015KT 9999 FEW045 15/03 Q1019 RMK 1SC045 A3009
Conditions at: ROAH (NAHA (CIV/JASDF), JP) observed 2030 UTC 22 January 2019
Temperature: 15.0°C (59°F)
Dewpoint: 3.0°C (37°F) [RH = 44%]
Pressure (altimeter): 30.09 inches Hg (1019.0 mb)
Winds: from the N (350 degrees) at 17 MPH (15 knots; 7.7 m/s)
Visibility: 6 or more miles (10+ km)
Ceiling: at least 12,000 feet AGL
Clouds: few clouds at 4500 feet AGL
Weather: no significant weather observed at this time

METAR text: ROAH 222000Z 35013KT 9999 FEW040 SCT050 15/05 Q1019 RMK 2SC040 4SC050 A3009
Conditions at: ROAH (NAHA (CIV/JASDF), JP) observed 2000 UTC 22 January 2019
Temperature: 15.0°C (59°F)
Dewpoint: 5.0°C (41°F) [RH = 51%]
Pressure (altimeter): 30.09 inches Hg (1019.0 mb)
Winds: from the N (350 degrees) at 15 MPH (13 knots; 6.7 m/s)
Visibility: 6 or more miles (10+ km)
Ceiling: at least 12,000 feet AGL
Clouds: few clouds at 4000 feet AGL
scattered clouds at 5000 feet AGL
Weather: no significant weather observed at this time

METAR text: ROAH 221930Z 34012KT 9999 FEW045 SCT050 15/04 Q1019 RMK 1SC045 4SC050 A3010
Conditions at: ROAH (NAHA (CIV/JASDF), JP) observed 1930 UTC 22 January 2019
Temperature: 15.0°C (59°F)
Dewpoint: 4.0°C (39°F) [RH = 48%]
Pressure (altimeter): 30.09 inches Hg (1019.0 mb)
Winds: from the NNW (340 degrees) at 14 MPH (12 knots; 6.2 m/s)
Visibility: 6 or more miles (10+ km)
Ceiling: at least 12,000 feet AGL
Clouds: few clouds at 4500 feet AGL
scattered clouds at 5000 feet AGL
Weather: no significant weather observed at this time

METAR text: ROAH 221900Z 34015KT 9999 FEW045 15/03 Q1019 RMK 2SC045 A3011
Conditions at: ROAH (NAHA (CIV/JASDF), JP) observed 1900 UTC 22 January 2019
Temperature: 15.0°C (59°F)
Dewpoint: 3.0°C (37°F) [RH = 44%]
Pressure (altimeter): 30.09 inches Hg (1019.0 mb)
Winds: from the NNW (340 degrees) at 17 MPH (15 knots; 7.7 m/s)
Visibility: 6 or more miles (10+ km)
Ceiling: at least 12,000 feet AGL
Clouds: few clouds at 4500 feet AGL
Weather: no significant weather observed at this time

METAR text: ROAH 221830Z 34016KT 9999 FEW045 15/05 Q1019 RMK 2SC045 A3011
Conditions at: ROAH (NAHA (CIV/JASDF), JP) observed 1830 UTC 22 January 2019
Temperature: 15.0°C (59°F)
Dewpoint: 5.0°C (41°F) [RH = 51%]
Pressure (altimeter): 30.09 inches Hg (1019.0 mb)
Winds: from the NNW (340 degrees) at 18 MPH (16 knots; 8.2 m/s)
Visibility: 6 or more miles (10+ km)
Ceiling: at least 12,000 feet AGL
Clouds: few clouds at 4500 feet AGL
Weather: no significant weather observed at this time

METAR text: ROAH 221800Z 33012KT 9999 FEW043 SCT060 15/06 Q1019 RMK 2SC043 4SC060 A3011
Conditions at: ROAH (NAHA (CIV/JASDF), JP) observed 1800 UTC 22 January 2019
Temperature: 15.0°C (59°F)
Dewpoint: 6.0°C (43°F) [RH = 55%]
Pressure (altimeter): 30.09 inches Hg (1019.0 mb)
Winds: from the NNW (330 degrees) at 14 MPH (12 knots; 6.2 m/s)
Visibility: 6 or more miles (10+ km)
Ceiling: at least 12,000 feet AGL
Clouds: few clouds at 4300 feet AGL
scattered clouds at 6000 feet AGL
Weather: no significant weather observed at this time

METAR text: ROAH 221730Z 35013KT 9999 FEW045 SCT050 15/05 Q1020 RMK 2SC045 3SC050 A3012
Conditions at: ROAH (NAHA (CIV/JASDF), JP) observed 1730 UTC 22 January 2019
Temperature: 15.0°C (59°F)
Dewpoint: 5.0°C (41°F) [RH = 51%]
Pressure (altimeter): 30.12 inches Hg (1020.0 mb)
Winds: from the N (350 degrees) at 15 MPH (13 knots; 6.7 m/s)
Visibility: 6 or more miles (10+ km)
Ceiling: at least 12,000 feet AGL
Clouds: few clouds at 4500 feet AGL
scattered clouds at 5000 feet AGL
Weather: no significant weather observed at this time

METAR text: ROAH 221700Z 35011KT 9999 FEW045 SCT060 15/04 Q1020 RMK 2SC045 4SC060 A3013
Conditions at: ROAH (NAHA (CIV/JASDF), JP) observed 1700 UTC 22 January 2019
Temperature: 15.0°C (59°F)
Dewpoint: 4.0°C (39°F) [RH = 48%]
Pressure (altimeter): 30.12 inches Hg (1020.0 mb)
Winds: from the N (350 degrees) at 13 MPH (11 knots; 5.7 m/s)
Visibility: 6 or more miles (10+ km)
Ceiling: at least 12,000 feet AGL
Clouds: few clouds at 4500 feet AGL
scattered clouds at 6000 feet AGL
Weather: no significant weather observed at this time

METAR text: ROAH 221630Z 35013KT CAVOK 15/04 Q1020 RMK A3013
Conditions at: ROAH (NAHA (CIV/JASDF), JP) observed 1630 UTC 22 January 2019
Temperature: 15.0°C (59°F)
Dewpoint: 4.0°C (39°F) [RH = 48%]
Pressure (altimeter): 30.12 inches Hg (1020.0 mb)
Winds: from the N (350 degrees) at 15 MPH (13 knots; 6.7 m/s)
Visibility: 6 or more miles (10+ km)
Ceiling: ceiling and visibility are OK
Clouds: unknown
Weather: no significant weather observed at this time

METAR text: ROAH 221600Z 34013KT CAVOK 15/03 Q1020 RMK A3013
Conditions at: ROAH (NAHA (CIV/JASDF), JP) observed 1600 UTC 22 January 2019
Temperature: 15.0°C (59°F)
Dewpoint: 3.0°C (37°F) [RH = 44%]
Pressure (altimeter): 30.12 inches Hg (1020.0 mb)
Winds: from the NNW (340 degrees) at 15 MPH (13 knots; 6.7 m/s)
Visibility: 6 or more miles (10+ km)
Ceiling: ceiling and visibility are OK
Clouds: unknown
Weather: no significant weather observed at this time

METAR text: ROAH 221530Z 34013KT 9999 SCT045 15/04 Q1020 RMK 4SC045 A3013
Conditions at: ROAH (NAHA (CIV/JASDF), JP) observed 1530 UTC 22 January 2019
Temperature: 15.0°C (59°F)
Dewpoint: 4.0°C (39°F) [RH = 48%]
Pressure (altimeter): 30.12 inches Hg (1020.0 mb)
Winds: from the NNW (340 degrees) at 15 MPH (13 knots; 6.7 m/s)
Visibility: 6 or more miles (10+ km)
Ceiling: at least 12,000 feet AGL
Clouds: scattered clouds at 4500 feet AGL
Weather: no significant weather observed at this time

METAR text: ROAH 221500Z 34012KT 9999 SCT045 15/05 Q1020 RMK 4SC045 A3013
Conditions at: ROAH (NAHA (CIV/JASDF), JP) observed 1500 UTC 22 January 2019
Temperature: 15.0°C (59°F)
Dewpoint: 5.0°C (41°F) [RH = 51%]
Pressure (altimeter): 30.12 inches Hg (1020.0 mb)
Winds: from the NNW (340 degrees) at 14 MPH (12 knots; 6.2 m/s)
Visibility: 6 or more miles (10+ km)
Ceiling: at least 12,000 feet AGL
Clouds: scattered clouds at 4500 feet AGL
Weather: no significant weather observed at this time

METAR text: ROAH 221430Z 33014KT 9999 SCT045 15/03 Q1020 RMK 3SC045 A3013
Conditions at: ROAH (NAHA (CIV/JASDF), JP) observed 1430 UTC 22 January 2019
Temperature: 15.0°C (59°F)
Dewpoint: 3.0°C (37°F) [RH = 44%]
Pressure (altimeter): 30.12 inches Hg (1020.0 mb)
Winds: from the NNW (330 degrees) at 16 MPH (14 knots; 7.2 m/s)
Visibility: 6 or more miles (10+ km)
Ceiling: at least 12,000 feet AGL
Clouds: scattered clouds at 4500 feet AGL
Weather: no significant weather observed at this time

METAR text: ROAH 221400Z 35013KT 9999 SCT045 15/05 Q1020 RMK 4SC045 A3014
Conditions at: ROAH (NAHA (CIV/JASDF), JP) observed 1400 UTC 22 January 2019
Temperature: 15.0°C (59°F)
Dewpoint: 5.0°C (41°F) [RH = 51%]
Pressure (altimeter): 30.12 inches Hg (1020.0 mb)
Winds: from the N (350 degrees) at 15 MPH (13 knots; 6.7 m/s)
Visibility: 6 or more miles (10+ km)
Ceiling: at least 12,000 feet AGL
Clouds: scattered clouds at 4500 feet AGL
Weather: no significant weather observed at this time

METAR text: ROAH 221330Z 34014KT CAVOK 15/05 Q1020 RMK 5SC050 A3014
Conditions at: ROAH (NAHA (CIV/JASDF), JP) observed 1330 UTC 22 January 2019
Temperature: 15.0°C (59°F)
Dewpoint: 5.0°C (41°F) [RH = 51%]
Pressure (altimeter): 30.12 inches Hg (1020.0 mb)
Winds: from the NNW (340 degrees) at 16 MPH (14 knots; 7.2 m/s)
Visibility: 6 or more miles (10+ km)
Ceiling: ceiling and visibility are OK
Clouds: unknown
Weather: no significant weather observed at this time

METAR text: ROAH 221300Z 34014KT 9999 FEW045 BKN060 15/05 Q1020 RMK 1SC045 5SC060 A3014
Conditions at: ROAH (NAHA (CIV/JASDF), JP) observed 1300 UTC 22 January 2019
Temperature: 15.0°C (59°F)
Dewpoint: 5.0°C (41°F) [RH = 51%]
Pressure (altimeter): 30.12 inches Hg (1020.0 mb)
Winds: from the NNW (340 degrees) at 16 MPH (14 knots; 7.2 m/s)
Visibility: 6 or more miles (10+ km)
Ceiling: 6000 feet AGL
Clouds: few clouds at 4500 feet AGL
broken clouds at 6000 feet AGL
Weather: no significant weather observed at this time

METAR text: ROAH 221230Z 35017KT 9999 FEW042 BKN060 16/06 Q1020 RMK 2SC042 5SC060 A3014
Conditions at: ROAH (NAHA (CIV/JASDF), JP) observed 1230 UTC 22 January 2019
Temperature: 16.0°C (61°F)
Dewpoint: 6.0°C (43°F) [RH = 51%]
Pressure (altimeter): 30.12 inches Hg (1020.0 mb)
Winds: from the N (350 degrees) at 20 MPH (17 knots; 8.7 m/s)
Visibility: 6 or more miles (10+ km)
Ceiling: 6000 feet AGL
Clouds: few clouds at 4200 feet AGL
broken clouds at 6000 feet AGL
Weather: no significant weather observed at this time

METAR text: ROAH 221200Z 34018KT 9999 FEW045 BKN090 16/05 Q1020 RMK 2SC045 6AC090 A3014
Conditions at: ROAH (NAHA (CIV/JASDF), JP) observed 1200 UTC 22 January 2019
Temperature: 16.0°C (61°F)
Dewpoint: 5.0°C (41°F) [RH = 48%]
Pressure (altimeter): 30.12 inches Hg (1020.0 mb)
Winds: from the NNW (340 degrees) at 21 MPH (18 knots; 9.3 m/s)
Visibility: 6 or more miles (10+ km)
Ceiling: 9000 feet AGL
Clouds: few clouds at 4500 feet AGL
broken clouds at 9000 feet AGL
Weather: no significant weather observed at this time

METAR text: ROAH 221130Z 34017KT 9999 FEW040 BKN090 16/05 Q1020 RMK 2SC040 7AC090 A3013
Conditions at: ROAH (NAHA (CIV/JASDF), JP) observed 1130 UTC 22 January 2019
Temperature: 16.0°C (61°F)
Dewpoint: 5.0°C (41°F) [RH = 48%]
Pressure (altimeter): 30.12 inches Hg (1020.0 mb)
Winds: from the NNW (340 degrees) at 20 MPH (17 knots; 8.7 m/s)
Visibility: 6 or more miles (10+ km)
Ceiling: 9000 feet AGL
Clouds: few clouds at 4000 feet AGL
broken clouds at 9000 feet AGL
Weather: no significant weather observed at this time

METAR text: ROAH 221100Z 34018KT 9999 FEW035 BKN090 16/07 Q1020 RMK 2CU035 6AC090 A3013
Conditions at: ROAH (NAHA (CIV/JASDF), JP) observed 1100 UTC 22 January 2019
Temperature: 16.0°C (61°F)
Dewpoint: 7.0°C (45°F) [RH = 55%]
Pressure (altimeter): 30.12 inches Hg (1020.0 mb)
Winds: from the NNW (340 degrees) at 21 MPH (18 knots; 9.3 m/s)
Visibility: 6 or more miles (10+ km)
Ceiling: 9000 feet AGL
Clouds: few clouds at 3500 feet AGL
broken clouds at 9000 feet AGL
Weather: no significant weather observed at this time

METAR text: ROAH 221030Z 34016KT 9999 FEW030 SCT050 BKN090 16/08 Q1020 RMK 1CU030 3SC050 6AC090 A3013
Conditions at: ROAH (NAHA (CIV/JASDF), JP) observed 1030 UTC 22 January 2019
Temperature: 16.0°C (61°F)
Dewpoint: 8.0°C (46°F) [RH = 59%]
Pressure (altimeter): 30.12 inches Hg (1020.0 mb)
Winds: from the NNW (340 degrees) at 18 MPH (16 knots; 8.2 m/s)
Visibility: 6 or more miles (10+ km)
Ceiling: 9000 feet AGL
Clouds: few clouds at 3000 feet AGL
scattered clouds at 5000 feet AGL
broken clouds at 9000 feet AGL
Weather: no significant weather observed at this time

METAR text: ROAH 221000Z 34016KT 9999 FEW030 BKN060 16/09 Q1020 RMK 2CU030 6SC060 A3012
Conditions at: ROAH (NAHA (CIV/JASDF), JP) observed 1000 UTC 22 January 2019
Temperature: 16.0°C (61°F)
Dewpoint: 9.0°C (48°F) [RH = 63%]
Pressure (altimeter): 30.12 inches Hg (1020.0 mb)
Winds: from the NNW (340 degrees) at 18 MPH (16 knots; 8.2 m/s)
Visibility: 6 or more miles (10+ km)
Ceiling: 6000 feet AGL
Clouds: few clouds at 3000 feet AGL
broken clouds at 6000 feet AGL
Weather: no significant weather observed at this time

METAR text: ROAH 220930Z 33015KT 9999 FEW030 BKN045 16/09 Q1019 RMK 2CU030 6SC045 A3011
Conditions at: ROAH (NAHA (CIV/JASDF), JP) observed 0930 UTC 22 January 2019
Temperature: 16.0°C (61°F)
Dewpoint: 9.0°C (48°F) [RH = 63%]
Pressure (altimeter): 30.09 inches Hg (1019.0 mb)
Winds: from the NNW (330 degrees) at 17 MPH (15 knots; 7.7 m/s)
Visibility: 6 or more miles (10+ km)
Ceiling: 4500 feet AGL
Clouds: few clouds at 3000 feet AGL
broken clouds at 4500 feet AGL
Weather: no significant weather observed at this time

METAR text: ROAH 220900Z 35019KT 9999 VCSH FEW025 SCT035 BKN045 16/09 Q1019 RMK 2CU025 3CU035 6SC045 A3011
Conditions at: ROAH (NAHA (CIV/JASDF), JP) observed 0900 UTC 22 January 2019
Temperature: 16.0°C (61°F)
Dewpoint: 9.0°C (48°F) [RH = 63%]
Pressure (altimeter): 30.09 inches Hg (1019.0 mb)
Winds: from the N (350 degrees) at 22 MPH (19 knots; 9.8 m/s)
Visibility: 6 or more miles (10+ km)
Ceiling: 4500 feet AGL
Clouds: few clouds at 2500 feet AGL
scattered clouds at 3500 feet AGL
broken clouds at 4500 feet AGL
Weather: VCSH  (showers in vicinity)

METAR text: ROAH 220830Z 34017KT 9999 -RA FEW025 SCT035 BKN045 16/09 Q1019 RMK 2CU025 3CU035 6SC045 A3010
Conditions at: ROAH (NAHA (CIV/JASDF), JP) observed 0830 UTC 22 January 2019
Temperature: 16.0°C (61°F)
Dewpoint: 9.0°C (48°F) [RH = 63%]
Pressure (altimeter): 30.09 inches Hg (1019.0 mb)
Winds: from the NNW (340 degrees) at 20 MPH (17 knots; 8.7 m/s)
Visibility: 6 or more miles (10+ km)
Ceiling: 4500 feet AGL
Clouds: few clouds at 2500 feet AGL
scattered clouds at 3500 feet AGL
broken clouds at 4500 feet AGL
Weather: -RA  (light rain)

Forecast for: ROAH (NAHA (CIV/JASDF), JP)
Text: TAF ROAH 231707Z 2318/2500 01008KT 9999 FEW040
Forecast period: 1800 UTC 23 January 2019 to 0000 UTC 25 January 2019
Forecast type: FROM: standard forecast or significant change
Winds: from the N (10 degrees) at 9 MPH (8 knots; 4.1 m/s)
Visibility: 6 or more miles 10+ km)
Ceiling: at least 12,000 feet AGL
Clouds: few clouds at 4000 feet AGL
Weather: no significant weather forecast for this period